ETSH

Holzdorf Air Base

Airport
ICAO code
ETSH
Summary
ICAO Region
EUR
ICAO Territory
Location

Holzdorf, Saxony-Anhalt,

Coordinates
51° 46' 4" N , 13° 10' 3" E
Metar
Observation
ETSH 031820Z 29012KT 9999 BKN030 07/01 Q1015 BLU
Station
Holzdorf
Date/Time
2023-02-03 19:20:00
Wind direction
290°
Wind speed
12 kts
Lowest cloud amount
broken clouds
Temperature
7°C
Dew point
1°C
Humidity
65%
QNH
1015 hPa
Weather condition
n/a

Description

Holzdorf Air Base is a military airfield operated by the German Air Force. It is located 3 km east of Holzdorf, Saxony-Anhalt.

Runways

Designator Length Width Surface Rops
9/27 2419 30 PEM No/No

Airport map

Aerial View

SKYbrary Partners:

Safety knowledge contributed by: